Sowerby Bridge, United Kingdom
Current Conditions -  °F | °C
As of 8:20 PM on Sunday 21 Dec 2014 (Local Time) from EGNM Reporting Station
Broken Clouds Broken Clouds  
Wind Chill: 52°   Ceiling: 1300
Heat Index: 52°   Visibility: 6mi
Dew Point: 48°   Wind: 18mph
Humidity: 88%   Direction: 240°WSW
Pressure: 29.83"   Gusts: 30mph
Location:  53.71°N, 1.92°W
Report Text: EGNM 212020Z 24016G26KT 180V270 9999 BKN013 11/09 Q1010
Loading
Personal Weather Stations






























Interactive Weather Map New forecast layout! Learn more

10-Day Weather Forecast

Advertisements
Track Severe Weather on mobile